Terminal Aerodrome Forecast
Issued by NWS

Home | Current Version | Previous Version | Text Only | Print | Product List | Glossary On
Versions: 1 2 3 4 5 6 7 8 9 10 11 12
000
FTUS46 KPDT 282320
TAFBDN
TAF
KBDN 282320Z 2900/2924 35009KT P6SM SCT090 BKN250
     FM290800 21004KT P6SM SCT080
     FM291700 29005KT P6SM SCT080
     FM292100 33015G25KT P6SM FEW080=

USA.gov is the U.S. government's official web portal to all federal, state and local government web resources and services.